sensor_id;sensor_type;location;lat;lon;timestamp;temperature;humidity
9973;DHT22;5027;53.560;10.062;2022-07-06T00:02:24;20.20;99.90
9973;DHT22;5027;53.560;10.062;2022-07-06T00:04:51;20.20;99.90
9973;DHT22;5027;53.560;10.062;2022-07-06T00:07:20;20.20;99.90
9973;DHT22;5027;53.560;10.062;2022-07-06T00:09:49;20.20;99.90
9973;DHT22;5027;53.560;10.062;2022-07-06T00:12:16;20.10;99.90
9973;DHT22;5027;53.560;10.062;2022-07-06T00:14:43;20.20;99.90
9973;DHT22;5027;53.560;10.062;2022-07-06T00:17:09;20.20;99.90
9973;DHT22;5027;53.560;10.062;2022-07-06T00:19:36;20.30;99.90
9973;DHT22;5027;53.560;10.062;2022-07-06T00:22:03;20.20;99.90
9973;DHT22;5027;53.560;10.062;2022-07-06T00:24:30;20.20;99.90
9973;DHT22;5027;53.560;10.062;2022-07-06T00:26:56;20.10;99.90
9973;DHT22;5027;53.560;10.062;2022-07-06T00:29:23;20.20;99.90
9973;DHT22;5027;53.560;10.062;2022-07-06T00:31:50;20.20;99.90
9973;DHT22;5027;53.560;10.062;2022-07-06T00:34:16;20.20;99.90
9973;DHT22;5027;53.560;10.062;2022-07-06T00:36:44;20.20;99.90
9973;DHT22;5027;53.560;10.062;2022-07-06T00:39:10;20.10;99.90
9973;DHT22;5027;53.560;10.062;2022-07-06T00:41:40;20.10;99.90
9973;DHT22;5027;53.560;10.062;2022-07-06T00:44:08;20.00;99.90
9973;DHT22;5027;53.560;10.062;2022-07-06T00:46:36;19.90;99.90
9973;DHT22;5027;53.560;10.062;2022-07-06T00:49:03;20.00;99.90
9973;DHT22;5027;53.560;10.062;2022-07-06T00:51:32;20.10;99.90
9973;DHT22;5027;53.560;10.062;2022-07-06T00:54:04;19.90;99.90
9973;DHT22;5027;53.560;10.062;2022-07-06T00:56:32;20.00;99.90
9973;DHT22;5027;53.560;10.062;2022-07-06T00:59:00;20.10;99.90
9973;DHT22;5027;53.560;10.062;2022-07-06T01:01:27;20.00;99.90
9973;DHT22;5027;53.560;10.062;2022-07-06T01:03:55;20.00;99.90
9973;DHT22;5027;53.560;10.062;2022-07-06T01:06:22;19.90;99.90
9973;DHT22;5027;53.560;10.062;2022-07-06T01:08:49;19.90;99.90
9973;DHT22;5027;53.560;10.062;2022-07-06T01:11:17;19.90;99.90
9973;DHT22;5027;53.560;10.062;2022-07-06T01:13:47;19.90;99.90
9973;DHT22;5027;53.560;10.062;2022-07-06T01:16:14;19.80;99.90
9973;DHT22;5027;53.560;10.062;2022-07-06T01:18:42;19.80;99.90
9973;DHT22;5027;53.560;10.062;2022-07-06T01:21:11;19.90;99.90
9973;DHT22;5027;53.560;10.062;2022-07-06T01:23:43;19.90;99.90
9973;DHT22;5027;53.560;10.062;2022-07-06T01:26:17;19.90;99.90
9973;DHT22;5027;53.560;10.062;2022-07-06T01:28:47;19.90;99.90
9973;DHT22;5027;53.560;10.062;2022-07-06T01:31:23;20.00;99.90
9973;DHT22;5027;53.560;10.062;2022-07-06T01:33:51;19.90;99.90
9973;DHT22;5027;53.560;10.062;2022-07-06T01:36:19;19.90;99.90
9973;DHT22;5027;53.560;10.062;2022-07-06T01:38:50;19.90;99.90
9973;DHT22;5027;53.560;10.062;2022-07-06T01:41:18;19.70;99.90
9973;DHT22;5027;53.560;10.062;2022-07-06T01:43:45;19.80;99.90
9973;DHT22;5027;53.560;10.062;2022-07-06T01:46:13;19.80;99.90
9973;DHT22;5027;53.560;10.062;2022-07-06T01:48:40;19.90;99.90
9973;DHT22;5027;53.560;10.062;2022-07-06T01:51:06;19.90;99.90
9973;DHT22;5027;53.560;10.062;2022-07-06T01:53:34;19.90;99.90
9973;DHT22;5027;53.560;10.062;2022-07-06T01:56:01;20.00;99.90
9973;DHT22;5027;53.560;10.062;2022-07-06T01:58:28;19.90;99.90
9973;DHT22;5027;53.560;10.062;2022-07-06T02:00:55;19.90;99.90
9973;DHT22;5027;53.560;10.062;2022-07-06T02:03:22;19.80;99.90
9973;DHT22;5027;53.560;10.062;2022-07-06T02:05:49;19.80;99.90
9973;DHT22;5027;53.560;10.062;2022-07-06T02:08:16;19.90;99.90
9973;DHT22;5027;53.560;10.062;2022-07-06T02:10:43;19.90;99.90
9973;DHT22;5027;53.560;10.062;2022-07-06T02:13:10;19.80;99.90
9973;DHT22;5027;53.560;10.062;2022-07-06T02:15:36;19.80;99.90
9973;DHT22;5027;53.560;10.062;2022-07-06T02:18:05;19.80;99.90
9973;DHT22;5027;53.560;10.062;2022-07-06T02:20:32;19.90;99.90
9973;DHT22;5027;53.560;10.062;2022-07-06T02:22:58;19.90;99.90
9973;DHT22;5027;53.560;10.062;2022-07-06T02:25:25;20.00;99.90
9973;DHT22;5027;53.560;10.062;2022-07-06T02:27:52;19.90;99.90
9973;DHT22;5027;53.560;10.062;2022-07-06T02:30:20;20.00;99.90
9973;DHT22;5027;53.560;10.062;2022-07-06T02:32:47;19.90;99.90
9973;DHT22;5027;53.560;10.062;2022-07-06T02:35:14;19.90;99.90
9973;DHT22;5027;53.560;10.062;2022-07-06T02:37:41;19.90;99.90
9973;DHT22;5027;53.560;10.062;2022-07-06T02:40:09;20.00;99.90
9973;DHT22;5027;53.560;10.062;2022-07-06T02:42:36;19.90;99.90
9973;DHT22;5027;53.560;10.062;2022-07-06T02:45:05;20.00;99.90
9973;DHT22;5027;53.560;10.062;2022-07-06T02:47:32;19.90;99.90
9973;DHT22;5027;53.560;10.062;2022-07-06T02:49:59;19.90;99.90
9973;DHT22;5027;53.560;10.062;2022-07-06T02:52:26;20.00;99.90
9973;DHT22;5027;53.560;10.062;2022-07-06T02:54:54;20.00;99.90
9973;DHT22;5027;53.560;10.062;2022-07-06T02:57:20;19.90;99.90
9973;DHT22;5027;53.560;10.062;2022-07-06T02:59:48;19.90;99.90
9973;DHT22;5027;53.560;10.062;2022-07-06T03:02:17;19.70;99.90
9973;DHT22;5027;53.560;10.062;2022-07-06T03:04:45;19.80;99.90
9973;DHT22;5027;53.560;10.062;2022-07-06T03:07:12;19.70;99.90
9973;DHT22;5027;53.560;10.062;2022-07-06T03:09:39;19.70;99.90
9973;DHT22;5027;53.560;10.062;2022-07-06T03:12:07;19.70;99.90
9973;DHT22;5027;53.560;10.062;2022-07-06T03:14:34;19.70;99.90
9973;DHT22;5027;53.560;10.062;2022-07-06T03:17:01;19.60;99.90
9973;DHT22;5027;53.560;10.062;2022-07-06T03:19:28;19.60;99.90
9973;DHT22;5027;53.560;10.062;2022-07-06T03:21:56;19.60;99.90
9973;DHT22;5027;53.560;10.062;2022-07-06T03:24:24;19.60;99.90
9973;DHT22;5027;53.560;10.062;2022-07-06T03:26:51;19.60;99.90
9973;DHT22;5027;53.560;10.062;2022-07-06T03:29:18;19.60;99.90
9973;DHT22;5027;53.560;10.062;2022-07-06T03:31:44;19.50;99.90
9973;DHT22;5027;53.560;10.062;2022-07-06T03:34:11;19.60;99.90
9973;DHT22;5027;53.560;10.062;2022-07-06T03:36:38;19.50;99.90
9973;DHT22;5027;53.560;10.062;2022-07-06T03:39:07;19.60;99.90
9973;DHT22;5027;53.560;10.062;2022-07-06T03:41:36;19.60;99.90
9973;DHT22;5027;53.560;10.062;2022-07-06T03:44:03;19.60;99.90
9973;DHT22;5027;53.560;10.062;2022-07-06T03:46:30;19.50;99.90
9973;DHT22;5027;53.560;10.062;2022-07-06T03:48:58;19.50;99.90
9973;DHT22;5027;53.560;10.062;2022-07-06T03:51:25;19.60;99.90
9973;DHT22;5027;53.560;10.062;2022-07-06T03:53:52;19.60;99.90
9973;DHT22;5027;53.560;10.062;2022-07-06T03:56:19;19.60;99.90
9973;DHT22;5027;53.560;10.062;2022-07-06T03:59:01;19.60;99.90
9973;DHT22;5027;53.560;10.062;2022-07-06T04:01:31;19.50;99.90
9973;DHT22;5027;53.560;10.062;2022-07-06T04:03:58;19.50;99.90
9973;DHT22;5027;53.560;10.062;2022-07-06T04:06:25;19.30;99.90
9973;DHT22;5027;53.560;10.062;2022-07-06T04:08:52;19.30;99.90
9973;DHT22;5027;53.560;10.062;2022-07-06T04:11:20;19.30;99.90
9973;DHT22;5027;53.560;10.062;2022-07-06T04:13:47;19.40;99.90
9973;DHT22;5027;53.560;10.062;2022-07-06T04:16:13;19.30;99.90
9973;DHT22;5027;53.560;10.062;2022-07-06T04:18:41;19.40;99.90
9973;DHT22;5027;53.560;10.062;2022-07-06T04:21:09;19.40;99.90
9973;DHT22;5027;53.560;10.062;2022-07-06T04:23:36;19.40;99.90
9973;DHT22;5027;53.560;10.062;2022-07-06T04:26:05;19.50;99.90
9973;DHT22;5027;53.560;10.062;2022-07-06T04:28:35;19.40;99.90
9973;DHT22;5027;53.560;10.062;2022-07-06T04:31:16;19.40;99.90
9973;DHT22;5027;53.560;10.062;2022-07-06T04:33:45;19.50;99.90
9973;DHT22;5027;53.560;10.062;2022-07-06T04:36:12;19.40;99.90
9973;DHT22;5027;53.560;10.062;2022-07-06T04:38:42;19.50;99.90
9973;DHT22;5027;53.560;10.062;2022-07-06T04:41:10;19.40;99.90
9973;DHT22;5027;53.560;10.062;2022-07-06T04:43:37;19.50;99.90
9973;DHT22;5027;53.560;10.062;2022-07-06T04:46:05;19.50;99.90
9973;DHT22;5027;53.560;10.062;2022-07-06T04:48:35;19.60;99.90
9973;DHT22;5027;53.560;10.062;2022-07-06T04:51:08;19.50;99.90
9973;DHT22;5027;53.560;10.062;2022-07-06T04:53:34;19.30;99.90
9973;DHT22;5027;53.560;10.062;2022-07-06T04:56:01;19.30;99.90
9973;DHT22;5027;53.560;10.062;2022-07-06T04:58:30;19.40;99.90
9973;DHT22;5027;53.560;10.062;2022-07-06T05:00:56;19.40;99.90
9973;DHT22;5027;53.560;10.062;2022-07-06T05:03:25;19.30;99.90
9973;DHT22;5027;53.560;10.062;2022-07-06T05:05:53;19.30;99.90
9973;DHT22;5027;53.560;10.062;2022-07-06T05:08:21;19.20;99.90
9973;DHT22;5027;53.560;10.062;2022-07-06T05:10:49;19.30;99.90
9973;DHT22;5027;53.560;10.062;2022-07-06T05:13:15;19.40;99.90
9973;DHT22;5027;53.560;10.062;2022-07-06T05:15:43;19.40;99.90
9973;DHT22;5027;53.560;10.062;2022-07-06T05:18:09;19.40;99.90
9973;DHT22;5027;53.560;10.062;2022-07-06T05:20:40;19.50;99.90
9973;DHT22;5027;53.560;10.062;2022-07-06T05:23:07;19.40;99.90
9973;DHT22;5027;53.560;10.062;2022-07-06T05:25:34;19.40;99.90
9973;DHT22;5027;53.560;10.062;2022-07-06T05:28:01;19.40;99.90
9973;DHT22;5027;53.560;10.062;2022-07-06T05:30:28;19.20;99.90
9973;DHT22;5027;53.560;10.062;2022-07-06T05:32:55;19.20;99.90
9973;DHT22;5027;53.560;10.062;2022-07-06T05:35:22;19.30;99.90
9973;DHT22;5027;53.560;10.062;2022-07-06T05:38:09;19.30;99.90
9973;DHT22;5027;53.560;10.062;2022-07-06T05:40:36;19.30;99.90
9973;DHT22;5027;53.560;10.062;2022-07-06T05:43:04;19.30;99.90
9973;DHT22;5027;53.560;10.062;2022-07-06T05:45:32;19.30;99.90
9973;DHT22;5027;53.560;10.062;2022-07-06T05:48:20;19.30;99.90
9973;DHT22;5027;53.560;10.062;2022-07-06T05:51:28;19.20;99.90
9973;DHT22;5027;53.560;10.062;2022-07-06T05:53:55;19.30;99.90
9973;DHT22;5027;53.560;10.062;2022-07-06T05:56:21;19.40;99.90
9973;DHT22;5027;53.560;10.062;2022-07-06T05:58:48;19.40;99.90
9973;DHT22;5027;53.560;10.062;2022-07-06T06:01:15;19.50;99.90
9973;DHT22;5027;53.560;10.062;2022-07-06T06:03:48;19.50;99.90
9973;DHT22;5027;53.560;10.062;2022-07-06T06:06:15;19.60;99.90
9973;DHT22;5027;53.560;10.062;2022-07-06T06:08:41;19.50;99.90
9973;DHT22;5027;53.560;10.062;2022-07-06T06:11:09;19.50;99.90
9973;DHT22;5027;53.560;10.062;2022-07-06T06:13:39;19.50;99.90
9973;DHT22;5027;53.560;10.062;2022-07-06T06:16:06;19.50;99.90
9973;DHT22;5027;53.560;10.062;2022-07-06T06:18:33;19.40;99.90
9973;DHT22;5027;53.560;10.062;2022-07-06T06:21:08;19.50;99.90
9973;DHT22;5027;53.560;10.062;2022-07-06T06:23:34;19.60;99.90
9973;DHT22;5027;53.560;10.062;2022-07-06T06:26:01;19.60;99.90
9973;DHT22;5027;53.560;10.062;2022-07-06T06:28:28;19.60;99.90
9973;DHT22;5027;53.560;10.062;2022-07-06T06:30:55;19.50;99.90
9973;DHT22;5027;53.560;10.062;2022-07-06T06:33:22;19.40;99.90
9973;DHT22;5027;53.560;10.062;2022-07-06T06:35:51;19.30;99.90
9973;DHT22;5027;53.560;10.062;2022-07-06T06:38:20;19.30;99.90
9973;DHT22;5027;53.560;10.062;2022-07-06T06:40:47;19.40;99.90
9973;DHT22;5027;53.560;10.062;2022-07-06T06:43:14;19.40;99.90
9973;DHT22;5027;53.560;10.062;2022-07-06T06:46:05;19.40;99.90
9973;DHT22;5027;53.560;10.062;2022-07-06T06:48:53;19.50;99.90
9973;DHT22;5027;53.560;10.062;2022-07-06T06:51:19;19.40;99.90
9973;DHT22;5027;53.560;10.062;2022-07-06T06:53:47;19.50;99.90
9973;DHT22;5027;53.560;10.062;2022-07-06T06:56:14;19.50;99.90
9973;DHT22;5027;53.560;10.062;2022-07-06T06:58:41;19.50;99.90
9973;DHT22;5027;53.560;10.062;2022-07-06T07:01:28;19.60;99.90
9973;DHT22;5027;53.560;10.062;2022-07-06T07:03:55;19.50;99.90
9973;DHT22;5027;53.560;10.062;2022-07-06T07:06:22;19.60;99.90
9973;DHT22;5027;53.560;10.062;2022-07-06T07:08:49;19.60;99.90
9973;DHT22;5027;53.560;10.062;2022-07-06T07:11:16;19.60;99.90
9973;DHT22;5027;53.560;10.062;2022-07-06T07:13:42;19.60;99.90
9973;DHT22;5027;53.560;10.062;2022-07-06T07:16:09;19.60;99.90
9973;DHT22;5027;53.560;10.062;2022-07-06T07:18:36;19.70;99.90
9973;DHT22;5027;53.560;10.062;2022-07-06T07:21:03;19.60;99.90
9973;DHT22;5027;53.560;10.062;2022-07-06T07:23:29;19.70;99.90
9973;DHT22;5027;53.560;10.062;2022-07-06T07:25:56;19.70;99.90
9973;DHT22;5027;53.560;10.062;2022-07-06T07:28:23;19.70;99.90
9973;DHT22;5027;53.560;10.062;2022-07-06T07:30:50;19.80;99.90
9973;DHT22;5027;53.560;10.062;2022-07-06T07:33:17;19.80;99.90
9973;DHT22;5027;53.560;10.062;2022-07-06T07:35:44;19.80;99.90
9973;DHT22;5027;53.560;10.062;2022-07-06T07:38:11;19.80;99.90
9973;DHT22;5027;53.560;10.062;2022-07-06T07:40:37;19.80;99.90
9973;DHT22;5027;53.560;10.062;2022-07-06T07:43:04;19.90;99.90
9973;DHT22;5027;53.560;10.062;2022-07-06T07:45:31;19.80;99.90
9973;DHT22;5027;53.560;10.062;2022-07-06T07:47:57;19.80;99.90
9973;DHT22;5027;53.560;10.062;2022-07-06T07:50:24;19.80;99.90
9973;DHT22;5027;53.560;10.062;2022-07-06T07:52:51;19.90;99.90
9973;DHT22;5027;53.560;10.062;2022-07-06T07:55:18;19.90;99.90
9973;DHT22;5027;53.560;10.062;2022-07-06T07:58:04;19.90;99.90
9973;DHT22;5027;53.560;10.062;2022-07-06T08:00:32;19.80;99.90
9973;DHT22;5027;53.560;10.062;2022-07-06T08:03:00;19.80;99.90
9973;DHT22;5027;53.560;10.062;2022-07-06T08:05:27;19.70;99.90
9973;DHT22;5027;53.560;10.062;2022-07-06T08:07:53;19.60;99.90
9973;DHT22;5027;53.560;10.062;2022-07-06T08:10:20;19.70;99.90
9973;DHT22;5027;53.560;10.062;2022-07-06T08:12:47;19.60;99.90
9973;DHT22;5027;53.560;10.062;2022-07-06T08:15:14;19.60;99.90
9973;DHT22;5027;53.560;10.062;2022-07-06T08:17:41;19.70;99.90
9973;DHT22;5027;53.560;10.062;2022-07-06T08:20:08;19.70;99.90
9973;DHT22;5027;53.560;10.062;2022-07-06T08:22:36;19.70;99.90
9973;DHT22;5027;53.560;10.062;2022-07-06T08:25:03;19.70;99.90
9973;DHT22;5027;53.560;10.062;2022-07-06T08:27:31;19.70;99.90
9973;DHT22;5027;53.560;10.062;2022-07-06T08:29:57;19.70;99.90
9973;DHT22;5027;53.560;10.062;2022-07-06T08:32:24;19.70;99.90
9973;DHT22;5027;53.560;10.062;2022-07-06T08:35:11;19.70;99.90
9973;DHT22;5027;53.560;10.062;2022-07-06T08:37:38;19.70;99.90
9973;DHT22;5027;53.560;10.062;2022-07-06T08:40:05;19.60;99.90
9973;DHT22;5027;53.560;10.062;2022-07-06T08:42:33;19.60;99.90
9973;DHT22;5027;53.560;10.062;2022-07-06T08:45:02;19.60;99.90
9973;DHT22;5027;53.560;10.062;2022-07-06T08:47:30;19.60;99.90
9973;DHT22;5027;53.560;10.062;2022-07-06T08:49:57;19.60;99.90
9973;DHT22;5027;53.560;10.062;2022-07-06T08:52:24;19.60;99.90
9973;DHT22;5027;53.560;10.062;2022-07-06T08:54:52;19.60;99.90
9973;DHT22;5027;53.560;10.062;2022-07-06T08:57:18;19.60;99.90
9973;DHT22;5027;53.560;10.062;2022-07-06T08:59:45;19.60;99.90
9973;DHT22;5027;53.560;10.062;2022-07-06T09:02:13;19.60;99.90
9973;DHT22;5027;53.560;10.062;2022-07-06T09:04:42;19.60;99.90
9973;DHT22;5027;53.560;10.062;2022-07-06T09:07:09;19.70;99.90
9973;DHT22;5027;53.560;10.062;2022-07-06T09:09:37;19.70;99.90
9973;DHT22;5027;53.560;10.062;2022-07-06T09:12:11;19.70;99.90
9973;DHT22;5027;53.560;10.062;2022-07-06T09:14:39;19.70;99.90
9973;DHT22;5027;53.560;10.062;2022-07-06T09:17:06;19.80;99.90
9973;DHT22;5027;53.560;10.062;2022-07-06T09:19:45;19.80;99.90
9973;DHT22;5027;53.560;10.062;2022-07-06T09:22:32;19.90;99.90
9973;DHT22;5027;53.560;10.062;2022-07-06T09:25:11;19.90;99.90
9973;DHT22;5027;53.560;10.062;2022-07-06T09:27:39;20.20;99.90
9973;DHT22;5027;53.560;10.062;2022-07-06T09:30:08;20.20;99.90
9973;DHT22;5027;53.560;10.062;2022-07-06T09:32:39;20.20;99.90
9973;DHT22;5027;53.560;10.062;2022-07-06T09:35:06;20.20;99.90
9973;DHT22;5027;53.560;10.062;2022-07-06T09:37:33;20.10;99.90
9973;DHT22;5027;53.560;10.062;2022-07-06T09:40:00;20.00;99.90
9973;DHT22;5027;53.560;10.062;2022-07-06T09:42:27;19.90;99.90
9973;DHT22;5027;53.560;10.062;2022-07-06T09:44:54;19.90;99.90
9973;DHT22;5027;53.560;10.062;2022-07-06T09:47:21;19.90;99.90
9973;DHT22;5027;53.560;10.062;2022-07-06T09:49:48;19.90;99.90
9973;DHT22;5027;53.560;10.062;2022-07-06T09:52:15;20.00;99.90
9973;DHT22;5027;53.560;10.062;2022-07-06T09:54:42;20.00;99.90
9973;DHT22;5027;53.560;10.062;2022-07-06T09:57:09;20.00;99.90
9973;DHT22;5027;53.560;10.062;2022-07-06T09:59:36;20.00;99.90
9973;DHT22;5027;53.560;10.062;2022-07-06T10:02:07;20.10;99.90
9973;DHT22;5027;53.560;10.062;2022-07-06T10:04:34;20.20;99.90
9973;DHT22;5027;53.560;10.062;2022-07-06T10:07:01;20.20;99.90
9973;DHT22;5027;53.560;10.062;2022-07-06T10:09:29;20.20;99.90
9973;DHT22;5027;53.560;10.062;2022-07-06T10:12:00;20.30;99.90
9973;DHT22;5027;53.560;10.062;2022-07-06T10:14:32;20.40;99.90
9973;DHT22;5027;53.560;10.062;2022-07-06T10:17:03;20.40;99.90
9973;DHT22;5027;53.560;10.062;2022-07-06T10:19:31;20.50;99.90
9973;DHT22;5027;53.560;10.062;2022-07-06T10:22:00;20.50;99.90
9973;DHT22;5027;53.560;10.062;2022-07-06T10:24:28;20.40;99.90
9973;DHT22;5027;53.560;10.062;2022-07-06T10:26:55;20.40;99.90
9973;DHT22;5027;53.560;10.062;2022-07-06T10:29:23;20.50;99.90
9973;DHT22;5027;53.560;10.062;2022-07-06T10:31:51;20.40;99.90
9973;DHT22;5027;53.560;10.062;2022-07-06T10:34:19;20.40;99.90
9973;DHT22;5027;53.560;10.062;2022-07-06T10:36:52;20.70;99.90
9973;DHT22;5027;53.560;10.062;2022-07-06T10:39:37;20.70;99.90
9973;DHT22;5027;53.560;10.062;2022-07-06T10:42:41;20.60;99.90
9973;DHT22;5027;53.560;10.062;2022-07-06T10:45:10;20.50;99.90
9973;DHT22;5027;53.560;10.062;2022-07-06T10:47:37;20.50;99.90
9973;DHT22;5027;53.560;10.062;2022-07-06T10:50:05;20.30;99.90
9973;DHT22;5027;53.560;10.062;2022-07-06T10:52:52;20.30;99.90
9973;DHT22;5027;53.560;10.062;2022-07-06T10:55:34;20.10;99.90
9973;DHT22;5027;53.560;10.062;2022-07-06T10:58:01;20.00;99.90
9973;DHT22;5027;53.560;10.062;2022-07-06T11:00:47;19.90;99.90
9973;DHT22;5027;53.560;10.062;2022-07-06T11:03:36;19.90;99.90
9973;DHT22;5027;53.560;10.062;2022-07-06T11:08:59;19.80;99.90
9973;DHT22;5027;53.560;10.062;2022-07-06T11:14:06;19.80;99.90
9973;DHT22;5027;53.560;10.062;2022-07-06T11:19:23;19.80;99.90
9973;DHT22;5027;53.560;10.062;2022-07-06T11:24:27;19.70;99.90
9973;DHT22;5027;53.560;10.062;2022-07-06T11:26:55;19.80;99.90
9973;DHT22;5027;53.560;10.062;2022-07-06T11:29:23;19.90;99.90
9973;DHT22;5027;53.560;10.062;2022-07-06T11:31:57;20.00;99.90
9973;DHT22;5027;53.560;10.062;2022-07-06T11:34:28;20.00;99.90
9973;DHT22;5027;53.560;10.062;2022-07-06T11:37:06;20.00;99.90
9973;DHT22;5027;53.560;10.062;2022-07-06T11:39:41;20.00;99.90
9973;DHT22;5027;53.560;10.062;2022-07-06T11:42:09;20.20;99.90
9973;DHT22;5027;53.560;10.062;2022-07-06T11:44:37;20.40;99.90
9973;DHT22;5027;53.560;10.062;2022-07-06T11:47:05;20.60;99.90
9973;DHT22;5027;53.560;10.062;2022-07-06T11:49:34;20.60;99.90
9973;DHT22;5027;53.560;10.062;2022-07-06T11:52:06;20.50;99.90
9973;DHT22;5027;53.560;10.062;2022-07-06T11:54:33;20.50;99.90
9973;DHT22;5027;53.560;10.062;2022-07-06T11:57:00;20.50;99.90
9973;DHT22;5027;53.560;10.062;2022-07-06T11:59:31;20.50;99.90
9973;DHT22;5027;53.560;10.062;2022-07-06T12:02:12;20.50;99.90
9973;DHT22;5027;53.560;10.062;2022-07-06T12:04:41;20.50;99.90
9973;DHT22;5027;53.560;10.062;2022-07-06T12:07:10;20.50;99.90
9973;DHT22;5027;53.560;10.062;2022-07-06T12:09:42;20.60;99.90
9973;DHT22;5027;53.560;10.062;2022-07-06T12:12:10;20.70;99.90
9973;DHT22;5027;53.560;10.062;2022-07-06T12:14:39;20.90;99.90
9973;DHT22;5027;53.560;10.062;2022-07-06T12:17:07;21.00;99.90
9973;DHT22;5027;53.560;10.062;2022-07-06T12:19:35;21.20;99.90
9973;DHT22;5027;53.560;10.062;2022-07-06T12:22:03;21.20;99.90
9973;DHT22;5027;53.560;10.062;2022-07-06T12:24:32;21.30;99.90
9973;DHT22;5027;53.560;10.062;2022-07-06T12:27:17;21.30;99.90
9973;DHT22;5027;53.560;10.062;2022-07-06T12:29:45;21.40;99.90
9973;DHT22;5027;53.560;10.062;2022-07-06T12:32:16;21.40;99.90
9973;DHT22;5027;53.560;10.062;2022-07-06T12:34:43;21.50;99.90
9973;DHT22;5027;53.560;10.062;2022-07-06T12:37:11;21.50;99.90
9973;DHT22;5027;53.560;10.062;2022-07-06T12:39:45;21.50;99.90
9973;DHT22;5027;53.560;10.062;2022-07-06T12:42:14;21.50;99.90
9973;DHT22;5027;53.560;10.062;2022-07-06T12:44:50;21.60;99.90
9973;DHT22;5027;53.560;10.062;2022-07-06T12:47:19;21.50;99.90
9973;DHT22;5027;53.560;10.062;2022-07-06T12:49:48;21.50;99.90
9973;DHT22;5027;53.560;10.062;2022-07-06T12:52:16;21.40;99.90
9973;DHT22;5027;53.560;10.062;2022-07-06T12:54:49;21.50;99.90
9973;DHT22;5027;53.560;10.062;2022-07-06T12:57:23;21.40;99.90
9973;DHT22;5027;53.560;10.062;2022-07-06T13:05:10;21.50;99.90
9973;DHT22;5027;53.560;10.062;2022-07-06T13:07:43;21.50;99.90
9973;DHT22;5027;53.560;10.062;2022-07-06T13:10:12;21.50;99.90
9973;DHT22;5027;53.560;10.062;2022-07-06T13:12:40;21.50;99.90
9973;DHT22;5027;53.560;10.062;2022-07-06T13:15:08;21.40;99.90
9973;DHT22;5027;53.560;10.062;2022-07-06T13:17:35;21.50;99.90
9973;DHT22;5027;53.560;10.062;2022-07-06T13:20:08;21.50;99.90
9973;DHT22;5027;53.560;10.062;2022-07-06T13:22:35;21.50;99.90
9973;DHT22;5027;53.560;10.062;2022-07-06T13:25:02;21.50;99.90
9973;DHT22;5027;53.560;10.062;2022-07-06T13:27:29;21.50;99.90
9973;DHT22;5027;53.560;10.062;2022-07-06T13:29:56;21.50;99.90
9973;DHT22;5027;53.560;10.062;2022-07-06T13:32:24;21.50;99.90
9973;DHT22;5027;53.560;10.062;2022-07-06T13:34:50;21.60;99.90
9973;DHT22;5027;53.560;10.062;2022-07-06T13:37:19;21.50;99.90
9973;DHT22;5027;53.560;10.062;2022-07-06T13:39:46;21.50;99.90
9973;DHT22;5027;53.560;10.062;2022-07-06T13:42:13;21.50;99.90
9973;DHT22;5027;53.560;10.062;2022-07-06T13:44:40;21.50;99.90
9973;DHT22;5027;53.560;10.062;2022-07-06T13:47:06;21.50;99.90
9973;DHT22;5027;53.560;10.062;2022-07-06T13:49:33;21.60;99.90
9973;DHT22;5027;53.560;10.062;2022-07-06T13:52:00;21.60;99.90
9973;DHT22;5027;53.560;10.062;2022-07-06T13:54:31;21.50;99.90
9973;DHT22;5027;53.560;10.062;2022-07-06T13:57:02;21.60;99.90
9973;DHT22;5027;53.560;10.062;2022-07-06T13:59:29;21.50;99.90
9973;DHT22;5027;53.560;10.062;2022-07-06T14:01:56;21.50;99.90
9973;DHT22;5027;53.560;10.062;2022-07-06T14:04:23;21.50;99.90
9973;DHT22;5027;53.560;10.062;2022-07-06T14:06:50;21.50;99.90
9973;DHT22;5027;53.560;10.062;2022-07-06T14:09:17;21.60;99.90
9973;DHT22;5027;53.560;10.062;2022-07-06T14:11:44;21.50;99.90
9973;DHT22;5027;53.560;10.062;2022-07-06T14:14:10;21.50;99.90
9973;DHT22;5027;53.560;10.062;2022-07-06T14:16:37;21.60;99.90
9973;DHT22;5027;53.560;10.062;2022-07-06T14:19:07;21.60;99.90
9973;DHT22;5027;53.560;10.062;2022-07-06T14:21:34;21.60;99.90
9973;DHT22;5027;53.560;10.062;2022-07-06T14:24:01;21.60;99.90
9973;DHT22;5027;53.560;10.062;2022-07-06T14:26:28;21.60;99.90
9973;DHT22;5027;53.560;10.062;2022-07-06T14:28:55;21.60;99.90
9973;DHT22;5027;53.560;10.062;2022-07-06T14:31:21;21.50;99.90
9973;DHT22;5027;53.560;10.062;2022-07-06T14:33:49;21.50;99.90
9973;DHT22;5027;53.560;10.062;2022-07-06T14:36:16;21.50;99.90
9973;DHT22;5027;53.560;10.062;2022-07-06T14:38:43;21.50;99.60
9973;DHT22;5027;53.560;10.062;2022-07-06T14:41:10;21.50;98.90
9973;DHT22;5027;53.560;10.062;2022-07-06T14:43:36;21.50;99.20
9973;DHT22;5027;53.560;10.062;2022-07-06T14:46:03;21.40;98.10
9973;DHT22;5027;53.560;10.062;2022-07-06T14:48:31;21.40;99.90
9973;DHT22;5027;53.560;10.062;2022-07-06T14:50:58;21.50;99.90
9973;DHT22;5027;53.560;10.062;2022-07-06T14:53:25;21.60;99.90
9973;DHT22;5027;53.560;10.062;2022-07-06T14:55:52;21.50;99.80
9973;DHT22;5027;53.560;10.062;2022-07-06T14:58:19;21.60;99.90
9973;DHT22;5027;53.560;10.062;2022-07-06T15:00:46;21.60;99.90
9973;DHT22;5027;53.560;10.062;2022-07-06T15:03:21;21.50;99.40
9973;DHT22;5027;53.560;10.062;2022-07-06T15:05:48;21.50;99.90
9973;DHT22;5027;53.560;10.062;2022-07-06T15:08:15;21.60;99.90
9973;DHT22;5027;53.560;10.062;2022-07-06T15:10:42;21.50;99.90
9973;DHT22;5027;53.560;10.062;2022-07-06T15:13:10;21.60;99.90
9973;DHT22;5027;53.560;10.062;2022-07-06T15:15:37;21.60;99.90
9973;DHT22;5027;53.560;10.062;2022-07-06T15:18:24;21.60;99.90
9973;DHT22;5027;53.560;10.062;2022-07-06T15:20:51;21.60;99.90
9973;DHT22;5027;53.560;10.062;2022-07-06T15:23:18;21.60;99.80
9973;DHT22;5027;53.560;10.062;2022-07-06T15:25:45;21.60;99.90
9973;DHT22;5027;53.560;10.062;2022-07-06T15:28:21;21.60;99.90
9973;DHT22;5027;53.560;10.062;2022-07-06T15:30:49;21.70;99.90
9973;DHT22;5027;53.560;10.062;2022-07-06T15:33:16;21.70;99.90
9973;DHT22;5027;53.560;10.062;2022-07-06T15:35:42;21.60;99.90
9973;DHT22;5027;53.560;10.062;2022-07-06T15:38:10;21.50;99.90
9973;DHT22;5027;53.560;10.062;2022-07-06T15:40:37;21.50;99.90
9973;DHT22;5027;53.560;10.062;2022-07-06T15:43:11;21.60;99.90
9973;DHT22;5027;53.560;10.062;2022-07-06T15:45:37;21.60;99.90
9973;DHT22;5027;53.560;10.062;2022-07-06T15:48:05;21.60;99.90
9973;DHT22;5027;53.560;10.062;2022-07-06T15:50:32;21.50;99.70
9973;DHT22;5027;53.560;10.062;2022-07-06T15:52:58;21.50;99.50
9973;DHT22;5027;53.560;10.062;2022-07-06T15:55:25;21.50;99.30
9973;DHT22;5027;53.560;10.062;2022-07-06T15:57:53;21.40;99.30
9973;DHT22;5027;53.560;10.062;2022-07-06T16:00:20;21.40;99.70
9973;DHT22;5027;53.560;10.062;2022-07-06T16:02:46;21.40;99.90
9973;DHT22;5027;53.560;10.062;2022-07-06T16:05:14;21.50;99.90
9973;DHT22;5027;53.560;10.062;2022-07-06T16:07:41;21.50;99.80
9973;DHT22;5027;53.560;10.062;2022-07-06T16:10:28;21.40;99.50
9973;DHT22;5027;53.560;10.062;2022-07-06T16:12:57;21.50;99.80